sensor_id;sensor_type;location;lat;lon;timestamp;pressure;altitude;pressure_sealevel;temperature;humidity
54194;BME280;40102;50.906;6.972;2022-09-30T00:00:14;100175.63;;;8.90;86.64
54194;BME280;40102;50.906;6.972;2022-09-30T00:02:41;100167.63;;;8.90;86.55
54194;BME280;40102;50.906;6.972;2022-09-30T00:05:07;100190.31;;;8.97;86.03
54194;BME280;40102;50.906;6.972;2022-09-30T00:07:32;100198.75;;;8.89;86.33
54194;BME280;40102;50.906;6.972;2022-09-30T00:09:57;100192.06;;;8.82;86.77
54194;BME280;40102;50.906;6.972;2022-09-30T00:12:23;100197.47;;;8.81;86.70
54194;BME280;40102;50.906;6.972;2022-09-30T00:14:48;100188.38;;;8.69;86.82
54194;BME280;40102;50.906;6.972;2022-09-30T00:17:13;100186.56;;;8.69;86.96
54194;BME280;40102;50.906;6.972;2022-09-30T00:19:39;100188.09;;;8.73;86.91
54194;BME280;40102;50.906;6.972;2022-09-30T00:22:04;100180.88;;;8.75;86.17
54194;BME280;40102;50.906;6.972;2022-09-30T00:24:30;100188.88;;;8.75;85.82
54194;BME280;40102;50.906;6.972;2022-09-30T00:26:55;100185.53;;;8.72;85.84
54194;BME280;40102;50.906;6.972;2022-09-30T00:29:20;100187.50;;;8.68;86.00
54194;BME280;40102;50.906;6.972;2022-09-30T00:31:46;100193.28;;;8.61;86.37
54194;BME280;40102;50.906;6.972;2022-09-30T00:34:11;100200.75;;;8.54;87.19
54194;BME280;40102;50.906;6.972;2022-09-30T00:36:47;100204.59;;;8.49;87.59
54194;BME280;40102;50.906;6.972;2022-09-30T00:39:22;100204.44;;;8.52;88.01
54194;BME280;40102;50.906;6.972;2022-09-30T00:41:51;100207.28;;;8.49;87.61
54194;BME280;40102;50.906;6.972;2022-09-30T00:47:43;100223.38;;;8.63;87.63
54194;BME280;40102;50.906;6.972;2022-09-30T00:52:43;100206.50;;;8.62;86.71
54194;BME280;40102;50.906;6.972;2022-09-30T00:55:20;100222.09;;;8.70;87.03
54194;BME280;40102;50.906;6.972;2022-09-30T00:57:48;100217.59;;;8.70;86.84
54194;BME280;40102;50.906;6.972;2022-09-30T01:00:14;100219.84;;;8.62;86.54
54194;BME280;40102;50.906;6.972;2022-09-30T01:02:39;100211.84;;;8.62;87.03
54194;BME280;40102;50.906;6.972;2022-09-30T01:05:05;100204.34;;;8.53;87.04
54194;BME280;40102;50.906;6.972;2022-09-30T01:07:30;100200.22;;;8.48;87.18
54194;BME280;40102;50.906;6.972;2022-09-30T01:09:56;100201.78;;;8.52;87.45
54194;BME280;40102;50.906;6.972;2022-09-30T01:12:23;100195.50;;;8.53;87.63
54194;BME280;40102;50.906;6.972;2022-09-30T01:14:50;100201.88;;;8.82;88.48
54194;BME280;40102;50.906;6.972;2022-09-30T01:20:16;100205.19;;;9.47;86.34
54194;BME280;40102;50.906;6.972;2022-09-30T01:25:52;100215.81;;;9.32;81.57
54194;BME280;40102;50.906;6.972;2022-09-30T01:29:27;100224.03;;;9.14;82.40
54194;BME280;40102;50.906;6.972;2022-09-30T01:34:40;100227.94;;;8.76;83.42
54194;BME280;40102;50.906;6.972;2022-09-30T01:40:14;100229.38;;;8.66;84.16
54194;BME280;40102;50.906;6.972;2022-09-30T01:45:20;100221.03;;;8.41;83.89
54194;BME280;40102;50.906;6.972;2022-09-30T01:47:59;100226.22;;;8.27;85.03
54194;BME280;40102;50.906;6.972;2022-09-30T01:55:43;100215.75;;;8.06;87.57
54194;BME280;40102;50.906;6.972;2022-09-30T02:01:06;100215.78;;;8.55;88.70
54194;BME280;40102;50.906;6.972;2022-09-30T02:03:44;100224.22;;;8.63;84.74
54194;BME280;40102;50.906;6.972;2022-09-30T02:06:17;100225.16;;;8.47;84.35
54194;BME280;40102;50.906;6.972;2022-09-30T02:08:58;100229.03;;;8.24;85.08
54194;BME280;40102;50.906;6.972;2022-09-30T02:11:29;100232.28;;;8.13;85.82
54194;BME280;40102;50.906;6.972;2022-09-30T02:14:12;100226.81;;;7.99;86.62
54194;BME280;40102;50.906;6.972;2022-09-30T02:16:55;100230.75;;;7.92;87.51
54194;BME280;40102;50.906;6.972;2022-09-30T02:19:25;100250.16;;;7.94;87.74
54194;BME280;40102;50.906;6.972;2022-09-30T02:22:07;100226.91;;;7.80;87.96
54194;BME280;40102;50.906;6.972;2022-09-30T02:24:35;100235.22;;;7.74;88.31
54194;BME280;40102;50.906;6.972;2022-09-30T02:27:11;100226.22;;;7.59;89.03
54194;BME280;40102;50.906;6.972;2022-09-30T02:29:42;100220.97;;;7.58;89.14
54194;BME280;40102;50.906;6.972;2022-09-30T02:32:17;100230.91;;;7.54;89.19
54194;BME280;40102;50.906;6.972;2022-09-30T02:34:56;100232.88;;;7.51;89.54
54194;BME280;40102;50.906;6.972;2022-09-30T02:37:34;100230.59;;;7.43;89.39
54194;BME280;40102;50.906;6.972;2022-09-30T02:42:35;100232.56;;;7.39;89.46
54194;BME280;40102;50.906;6.972;2022-09-30T02:45:05;100230.69;;;7.41;89.41
54194;BME280;40102;50.906;6.972;2022-09-30T02:50:36;100244.69;;;7.45;88.71
54194;BME280;40102;50.906;6.972;2022-09-30T02:53:14;100251.75;;;7.46;89.46
54194;BME280;40102;50.906;6.972;2022-09-30T02:56:45;100240.69;;;7.36;89.12
54194;BME280;40102;50.906;6.972;2022-09-30T02:58:51;100237.88;;;7.39;88.81
54194;BME280;40102;50.906;6.972;2022-09-30T03:01:20;100251.81;;;7.44;88.48
54194;BME280;40102;50.906;6.972;2022-09-30T03:03:53;100244.47;;;7.50;88.93
54194;BME280;40102;50.906;6.972;2022-09-30T03:06:20;100247.84;;;7.70;89.28
54194;BME280;40102;50.906;6.972;2022-09-30T03:08:46;100245.16;;;7.88;88.11
54194;BME280;40102;50.906;6.972;2022-09-30T03:11:17;100250.94;;;7.96;86.79
54194;BME280;40102;50.906;6.972;2022-09-30T03:17:23;100260.38;;;8.36;84.87
54194;BME280;40102;50.906;6.972;2022-09-30T03:25:32;100253.06;;;7.72;84.26
54194;BME280;40102;50.906;6.972;2022-09-30T03:28:26;100266.00;;;7.62;85.33
54194;BME280;40102;50.906;6.972;2022-09-30T03:31:15;100270.38;;;7.46;85.88
54194;BME280;40102;50.906;6.972;2022-09-30T03:33:48;100264.16;;;7.28;86.72
54194;BME280;40102;50.906;6.972;2022-09-30T03:36:40;100258.72;;;7.12;87.67
54194;BME280;40102;50.906;6.972;2022-09-30T03:39:24;100253.78;;;7.05;88.44
54194;BME280;40102;50.906;6.972;2022-09-30T03:42:04;100263.69;;;7.01;89.00
54194;BME280;40102;50.906;6.972;2022-09-30T03:47:13;100257.66;;;6.98;89.42
54194;BME280;40102;50.906;6.972;2022-09-30T03:49:51;100275.69;;;7.10;89.22
54194;BME280;40102;50.906;6.972;2022-09-30T03:52:19;100271.38;;;7.07;89.30
54194;BME280;40102;50.906;6.972;2022-09-30T03:54:52;100287.03;;;7.13;88.79
54194;BME280;40102;50.906;6.972;2022-09-30T03:57:18;100292.94;;;7.20;88.61
54194;BME280;40102;50.906;6.972;2022-09-30T03:59:44;100297.38;;;7.20;88.41
54194;BME280;40102;50.906;6.972;2022-09-30T04:02:10;100298.81;;;7.27;88.94
54194;BME280;40102;50.906;6.972;2022-09-30T04:04:38;100294.06;;;7.33;88.75
54194;BME280;40102;50.906;6.972;2022-09-30T04:07:05;100292.34;;;7.32;87.50
54194;BME280;40102;50.906;6.972;2022-09-30T04:09:30;100304.63;;;7.35;86.54
54194;BME280;40102;50.906;6.972;2022-09-30T04:11:56;100305.28;;;7.21;86.46
54194;BME280;40102;50.906;6.972;2022-09-30T04:14:21;100307.53;;;7.11;86.92
54194;BME280;40102;50.906;6.972;2022-09-30T04:16:46;100313.22;;;7.04;87.19
54194;BME280;40102;50.906;6.972;2022-09-30T04:19:12;100322.41;;;6.97;87.66
54194;BME280;40102;50.906;6.972;2022-09-30T04:21:37;100313.78;;;6.92;87.97
54194;BME280;40102;50.906;6.972;2022-09-30T04:24:02;100328.81;;;6.93;88.31
54194;BME280;40102;50.906;6.972;2022-09-30T04:26:28;100327.22;;;6.89;88.68
54194;BME280;40102;50.906;6.972;2022-09-30T04:28:53;100311.19;;;6.71;89.32
54194;BME280;40102;50.906;6.972;2022-09-30T04:31:22;100307.09;;;6.64;89.80
54194;BME280;40102;50.906;6.972;2022-09-30T04:33:47;100312.63;;;6.60;90.22
54194;BME280;40102;50.906;6.972;2022-09-30T04:36:12;100326.00;;;6.58;90.17
54194;BME280;40102;50.906;6.972;2022-09-30T04:38:38;100319.81;;;6.58;90.31
54194;BME280;40102;50.906;6.972;2022-09-30T04:41:05;100325.84;;;6.61;89.70
54194;BME280;40102;50.906;6.972;2022-09-30T04:43:31;100342.31;;;6.69;89.58
54194;BME280;40102;50.906;6.972;2022-09-30T04:45:58;100337.91;;;6.68;89.40
54194;BME280;40102;50.906;6.972;2022-09-30T04:48:24;100334.53;;;6.65;89.55
54194;BME280;40102;50.906;6.972;2022-09-30T04:50:49;100339.56;;;6.71;89.62
54194;BME280;40102;50.906;6.972;2022-09-30T04:53:16;100345.34;;;6.80;89.21
54194;BME280;40102;50.906;6.972;2022-09-30T04:55:43;100347.78;;;7.04;89.56
54194;BME280;40102;50.906;6.972;2022-09-30T04:58:08;100339.66;;;7.07;87.12
54194;BME280;40102;50.906;6.972;2022-09-30T05:00:34;100342.47;;;7.04;85.77
54194;BME280;40102;50.906;6.972;2022-09-30T05:03:00;100350.72;;;6.98;85.98
54194;BME280;40102;50.906;6.972;2022-09-30T05:05:25;100350.50;;;6.83;86.12
54194;BME280;40102;50.906;6.972;2022-09-30T05:07:50;100364.09;;;6.77;87.01
54194;BME280;40102;50.906;6.972;2022-09-30T05:10:16;100354.28;;;6.59;87.72
54194;BME280;40102;50.906;6.972;2022-09-30T05:12:41;100358.00;;;6.55;88.17
54194;BME280;40102;50.906;6.972;2022-09-30T05:15:07;100365.78;;;6.60;88.37
54194;BME280;40102;50.906;6.972;2022-09-30T05:17:33;100355.44;;;6.54;88.87
54194;BME280;40102;50.906;6.972;2022-09-30T05:19:59;100355.63;;;6.49;88.75
54194;BME280;40102;50.906;6.972;2022-09-30T05:22:25;100366.78;;;6.57;88.74
54194;BME280;40102;50.906;6.972;2022-09-30T05:24:51;100371.03;;;6.61;89.69
54194;BME280;40102;50.906;6.972;2022-09-30T05:27:18;100351.28;;;6.67;89.86
54194;BME280;40102;50.906;6.972;2022-09-30T05:29:43;100363.09;;;6.80;88.05
54194;BME280;40102;50.906;6.972;2022-09-30T05:32:09;100364.38;;;6.71;87.51
54194;BME280;40102;50.906;6.972;2022-09-30T05:34:34;100384.28;;;6.81;88.13
54194;BME280;40102;50.906;6.972;2022-09-30T05:37:01;100375.72;;;6.75;87.51
54194;BME280;40102;50.906;6.972;2022-09-30T05:39:26;100373.28;;;6.70;87.64
54194;BME280;40102;50.906;6.972;2022-09-30T05:41:51;100377.78;;;6.68;87.50
54194;BME280;40102;50.906;6.972;2022-09-30T05:44:17;100364.97;;;6.58;87.80
54194;BME280;40102;50.906;6.972;2022-09-30T05:46:43;100373.38;;;6.48;88.17
54194;BME280;40102;50.906;6.972;2022-09-30T05:49:08;100365.06;;;6.36;88.88
54194;BME280;40102;50.906;6.972;2022-09-30T05:51:34;100376.75;;;6.32;88.39
54194;BME280;40102;50.906;6.972;2022-09-30T05:54:00;100382.22;;;6.29;88.52
54194;BME280;40102;50.906;6.972;2022-09-30T05:56:26;100393.75;;;6.28;88.73
54194;BME280;40102;50.906;6.972;2022-09-30T05:58:51;100406.03;;;6.30;88.90
54194;BME280;40102;50.906;6.972;2022-09-30T06:01:19;100387.06;;;6.19;88.56
54194;BME280;40102;50.906;6.972;2022-09-30T06:03:45;100401.31;;;6.16;88.84
54194;BME280;40102;50.906;6.972;2022-09-30T06:06:13;100409.09;;;6.21;89.13
54194;BME280;40102;50.906;6.972;2022-09-30T06:08:38;100405.91;;;6.13;89.21
54194;BME280;40102;50.906;6.972;2022-09-30T06:11:12;100422.44;;;6.20;89.11
54194;BME280;40102;50.906;6.972;2022-09-30T06:13:39;100409.84;;;6.25;88.98
54194;BME280;40102;50.906;6.972;2022-09-30T06:16:06;100412.88;;;6.36;89.31
54194;BME280;40102;50.906;6.972;2022-09-30T06:18:32;100427.75;;;6.60;89.22
54194;BME280;40102;50.906;6.972;2022-09-30T06:20:58;100415.38;;;6.79;89.08
54194;BME280;40102;50.906;6.972;2022-09-30T06:23:24;100431.47;;;7.15;88.29
54194;BME280;40102;50.906;6.972;2022-09-30T06:25:51;100432.69;;;7.27;84.54
54194;BME280;40102;50.906;6.972;2022-09-30T06:28:17;100435.84;;;7.17;83.99
54194;BME280;40102;50.906;6.972;2022-09-30T06:30:44;100441.97;;;7.19;84.64
54194;BME280;40102;50.906;6.972;2022-09-30T06:33:10;100421.03;;;7.11;83.96
54194;BME280;40102;50.906;6.972;2022-09-30T06:35:35;100427.84;;;6.98;83.33
54194;BME280;40102;50.906;6.972;2022-09-30T06:38:01;100433.72;;;6.86;84.96
54194;BME280;40102;50.906;6.972;2022-09-30T06:40:27;100428.94;;;6.73;85.63
54194;BME280;40102;50.906;6.972;2022-09-30T06:42:57;100440.78;;;6.66;86.48
54194;BME280;40102;50.906;6.972;2022-09-30T06:45:23;100440.13;;;6.61;85.69
54194;BME280;40102;50.906;6.972;2022-09-30T06:47:49;100449.56;;;6.68;86.05
54194;BME280;40102;50.906;6.972;2022-09-30T06:50:16;100454.53;;;6.76;85.85
54194;BME280;40102;50.906;6.972;2022-09-30T06:52:42;100444.84;;;6.75;85.42
54194;BME280;40102;50.906;6.972;2022-09-30T06:55:07;100458.50;;;6.86;85.83
54194;BME280;40102;50.906;6.972;2022-09-30T06:57:32;100454.06;;;6.87;85.66
54194;BME280;40102;50.906;6.972;2022-09-30T07:00:00;100465.66;;;7.04;85.92
54194;BME280;40102;50.906;6.972;2022-09-30T07:02:26;100468.03;;;7.10;86.31
54194;BME280;40102;50.906;6.972;2022-09-30T07:04:53;100465.63;;;7.25;84.89
54194;BME280;40102;50.906;6.972;2022-09-30T07:07:18;100479.88;;;7.42;84.91
54194;BME280;40102;50.906;6.972;2022-09-30T07:09:46;100475.91;;;7.51;83.97
54194;BME280;40102;50.906;6.972;2022-09-30T07:12:11;100473.19;;;7.53;82.63
54194;BME280;40102;50.906;6.972;2022-09-30T07:14:36;100484.91;;;7.48;83.57
54194;BME280;40102;50.906;6.972;2022-09-30T07:17:02;100497.66;;;7.61;84.28
54194;BME280;40102;50.906;6.972;2022-09-30T07:19:29;100493.63;;;7.71;83.50
54194;BME280;40102;50.906;6.972;2022-09-30T07:21:54;100478.56;;;7.70;82.74
54194;BME280;40102;50.906;6.972;2022-09-30T07:24:19;100480.09;;;7.57;83.08
54194;BME280;40102;50.906;6.972;2022-09-30T07:26:45;100482.59;;;7.41;83.67
54194;BME280;40102;50.906;6.972;2022-09-30T07:29:11;100490.50;;;7.42;85.64
54194;BME280;40102;50.906;6.972;2022-09-30T07:31:38;100489.94;;;7.55;85.23
54194;BME280;40102;50.906;6.972;2022-09-30T07:34:05;100505.19;;;7.70;84.30
54194;BME280;40102;50.906;6.972;2022-09-30T07:36:31;100505.41;;;7.84;84.14
54194;BME280;40102;50.906;6.972;2022-09-30T07:38:57;100512.88;;;7.95;83.07
54194;BME280;40102;50.906;6.972;2022-09-30T07:41:25;100502.72;;;8.03;83.31
54194;BME280;40102;50.906;6.972;2022-09-30T07:43:53;100496.59;;;8.01;82.12
54194;BME280;40102;50.906;6.972;2022-09-30T07:46:23;100518.63;;;8.04;83.50
54194;BME280;40102;50.906;6.972;2022-09-30T07:48:51;100530.25;;;8.21;82.69
54194;BME280;40102;50.906;6.972;2022-09-30T07:51:32;100519.81;;;8.35;81.52
54194;BME280;40102;50.906;6.972;2022-09-30T07:54:01;100506.81;;;8.46;80.71
54194;BME280;40102;50.906;6.972;2022-09-30T07:56:27;100516.16;;;8.55;80.54
54194;BME280;40102;50.906;6.972;2022-09-30T07:58:55;100502.13;;;8.51;80.10
54194;BME280;40102;50.906;6.972;2022-09-30T08:01:21;100511.69;;;8.38;80.21
54194;BME280;40102;50.906;6.972;2022-09-30T08:03:52;100518.56;;;8.06;82.22
54194;BME280;40102;50.906;6.972;2022-09-30T08:06:18;100518.16;;;7.77;83.86
54194;BME280;40102;50.906;6.972;2022-09-30T08:08:44;100512.91;;;7.57;85.81
54194;BME280;40102;50.906;6.972;2022-09-30T08:11:12;100521.88;;;7.55;86.86
54194;BME280;40102;50.906;6.972;2022-09-30T08:13:38;100516.84;;;7.48;87.40
54194;BME280;40102;50.906;6.972;2022-09-30T08:16:03;100514.84;;;7.54;88.00
54194;BME280;40102;50.906;6.972;2022-09-30T08:18:29;100526.22;;;7.76;88.94
54194;BME280;40102;50.906;6.972;2022-09-30T08:20:55;100525.91;;;8.01;88.06
54194;BME280;40102;50.906;6.972;2022-09-30T08:23:21;100528.63;;;8.18;86.58
54194;BME280;40102;50.906;6.972;2022-09-30T08:25:47;100525.28;;;8.32;85.73
54194;BME280;40102;50.906;6.972;2022-09-30T08:28:13;100516.56;;;8.47;84.28
54194;BME280;40102;50.906;6.972;2022-09-30T08:30:38;100516.72;;;8.61;83.34
54194;BME280;40102;50.906;6.972;2022-09-30T08:33:04;100523.31;;;8.71;83.23
54194;BME280;40102;50.906;6.972;2022-09-30T08:35:30;100525.75;;;8.76;83.68
54194;BME280;40102;50.906;6.972;2022-09-30T08:37:55;100533.19;;;8.87;84.02
54194;BME280;40102;50.906;6.972;2022-09-30T08:40:25;100517.88;;;8.90;83.40
54194;BME280;40102;50.906;6.972;2022-09-30T08:45:35;100523.44;;;9.03;83.30
54194;BME280;40102;50.906;6.972;2022-09-30T08:48:08;100533.19;;;9.04;83.46
54194;BME280;40102;50.906;6.972;2022-09-30T08:50:48;100528.00;;;9.01;84.09
54194;BME280;40102;50.906;6.972;2022-09-30T08:53:24;100514.97;;;8.95;84.18
54194;BME280;40102;50.906;6.972;2022-09-30T08:55:52;100523.44;;;9.03;83.80
54194;BME280;40102;50.906;6.972;2022-09-30T08:58:29;100524.78;;;9.12;83.42
54194;BME280;40102;50.906;6.972;2022-09-30T09:01:18;100531.72;;;9.31;83.08
54194;BME280;40102;50.906;6.972;2022-09-30T09:03:44;100512.25;;;9.29;81.45
54194;BME280;40102;50.906;6.972;2022-09-30T09:06:21;100524.69;;;9.46;81.01
54194;BME280;40102;50.906;6.972;2022-09-30T09:16:35;100505.84;;;9.49;82.25
54194;BME280;40102;50.906;6.972;2022-09-30T09:19:08;100513.69;;;9.52;81.22
54194;BME280;40102;50.906;6.972;2022-09-30T09:24:20;100518.44;;;9.79;80.92
54194;BME280;40102;50.906;6.972;2022-09-30T09:26:46;100515.34;;;9.86;80.60
54194;BME280;40102;50.906;6.972;2022-09-30T09:29:35;100521.72;;;9.99;80.28
54194;BME280;40102;50.906;6.972;2022-09-30T09:32:11;100525.53;;;10.11;79.98
54194;BME280;40102;50.906;6.972;2022-09-30T09:34:37;100501.47;;;10.11;80.19
54194;BME280;40102;50.906;6.972;2022-09-30T09:42:57;100500.88;;;10.22;80.26
54194;BME280;40102;50.906;6.972;2022-09-30T09:45:28;100511.06;;;10.31;80.26
54194;BME280;40102;50.906;6.972;2022-09-30T09:47:58;100496.72;;;10.32;80.29
54194;BME280;40102;50.906;6.972;2022-09-30T09:53:29;100499.53;;;10.45;80.33
54194;BME280;40102;50.906;6.972;2022-09-30T09:56:00;100493.22;;;10.46;79.70
54194;BME280;40102;50.906;6.972;2022-09-30T09:58:27;100504.78;;;10.46;79.16
54194;BME280;40102;50.906;6.972;2022-09-30T10:01:08;100493.72;;;10.52;79.42
54194;BME280;40102;50.906;6.972;2022-09-30T10:03:45;100501.28;;;10.60;79.59
54194;BME280;40102;50.906;6.972;2022-09-30T10:06:12;100497.94;;;10.56;79.31
54194;BME280;40102;50.906;6.972;2022-09-30T10:08:39;100498.53;;;10.61;78.78
54194;BME280;40102;50.906;6.972;2022-09-30T10:11:26;100475.22;;;10.63;78.90
54194;BME280;40102;50.906;6.972;2022-09-30T10:13:58;100493.81;;;10.81;78.80
54194;BME280;40102;50.906;6.972;2022-09-30T10:16:33;100498.09;;;10.83;78.66
54194;BME280;40102;50.906;6.972;2022-09-30T10:19:00;100490.94;;;10.84;76.35
54194;BME280;40102;50.906;6.972;2022-09-30T10:21:28;100489.44;;;10.94;75.63
54194;BME280;40102;50.906;6.972;2022-09-30T10:23:54;100495.75;;;11.07;75.42
54194;BME280;40102;50.906;6.972;2022-09-30T10:26:24;100494.44;;;11.14;75.99
54194;BME280;40102;50.906;6.972;2022-09-30T10:28:51;100487.94;;;11.18;76.66
54194;BME280;40102;50.906;6.972;2022-09-30T10:31:31;100480.56;;;11.22;77.26
54194;BME280;40102;50.906;6.972;2022-09-30T10:34:24;100492.91;;;11.24;77.53
54194;BME280;40102;50.906;6.972;2022-09-30T10:36:52;100471.69;;;11.21;77.57
54194;BME280;40102;50.906;6.972;2022-09-30T10:39:24;100468.03;;;11.22;77.10
54194;BME280;40102;50.906;6.972;2022-09-30T10:42:07;100474.34;;;11.35;77.23
54194;BME280;40102;50.906;6.972;2022-09-30T10:44:52;100480.47;;;11.38;77.30
54194;BME280;40102;50.906;6.972;2022-09-30T10:47:21;100481.25;;;11.40;76.30
54194;BME280;40102;50.906;6.972;2022-09-30T10:50:05;100496.53;;;11.52;73.97
54194;BME280;40102;50.906;6.972;2022-09-30T10:52:35;100480.28;;;11.55;72.21
54194;BME280;40102;50.906;6.972;2022-09-30T10:55:06;100478.16;;;11.60;71.94
54194;BME280;40102;50.906;6.972;2022-09-30T10:57:34;100477.97;;;11.63;72.05
54194;BME280;40102;50.906;6.972;2022-09-30T11:00:15;100477.47;;;11.71;72.17
54194;BME280;40102;50.906;6.972;2022-09-30T11:03:24;100479.47;;;11.95;72.76
54194;BME280;40102;50.906;6.972;2022-09-30T11:05:52;100472.75;;;12.03;72.93
54194;BME280;40102;50.906;6.972;2022-09-30T11:08:33;100482.34;;;12.19;72.13
54194;BME280;40102;50.906;6.972;2022-09-30T11:11:27;100488.44;;;12.36;68.83
54194;BME280;40102;50.906;6.972;2022-09-30T11:14:20;100475.72;;;12.25;68.06
54194;BME280;40102;50.906;6.972;2022-09-30T11:17:02;100488.06;;;12.27;67.32
54194;BME280;40102;50.906;6.972;2022-09-30T11:19:36;100478.72;;;12.20;67.51
54194;BME280;40102;50.906;6.972;2022-09-30T11:24:51;100485.38;;;12.54;67.98
54194;BME280;40102;50.906;6.972;2022-09-30T11:30:02;100502.31;;;13.07;68.09
54194;BME280;40102;50.906;6.972;2022-09-30T11:35:28;100500.53;;;13.20;66.30
54194;BME280;40102;50.906;6.972;2022-09-30T11:41:07;100494.19;;;13.34;64.73
54194;BME280;40102;50.906;6.972;2022-09-30T11:55:03;100479.03;;;14.19;60.14
54194;BME280;40102;50.906;6.972;2022-09-30T11:57:38;100477.78;;;14.36;59.94
54194;BME280;40102;50.906;6.972;2022-09-30T12:00:14;100470.75;;;14.46;59.16
54194;BME280;40102;50.906;6.972;2022-09-30T12:02:52;100456.94;;;14.50;58.09
54194;BME280;40102;50.906;6.972;2022-09-30T12:05:23;100461.50;;;14.61;56.92
54194;BME280;40102;50.906;6.972;2022-09-30T12:07:59;100459.22;;;14.68;54.36
54194;BME280;40102;50.906;6.972;2022-09-30T12:10:32;100464.78;;;14.88;53.10
54194;BME280;40102;50.906;6.972;2022-09-30T12:13:09;100458.25;;;14.80;52.81
54194;BME280;40102;50.906;6.972;2022-09-30T12:15:37;100463.91;;;14.88;52.97
54194;BME280;40102;50.906;6.972;2022-09-30T12:18:38;100460.22;;;14.78;53.60
54194;BME280;40102;50.906;6.972;2022-09-30T12:26:19;100442.41;;;15.21;52.66
54194;BME280;40102;50.906;6.972;2022-09-30T12:28:55;100435.31;;;15.32;50.37
54194;BME280;40102;50.906;6.972;2022-09-30T12:32:01;100440.94;;;15.40;50.29
54194;BME280;40102;50.906;6.972;2022-09-30T12:48:08;100413.34;;;16.13;50.12
54194;BME280;40102;50.906;6.972;2022-09-30T12:50:44;100419.25;;;16.71;48.85
54194;BME280;40102;50.906;6.972;2022-09-30T12:53:23;100412.31;;;16.99;49.17
54194;BME280;40102;50.906;6.972;2022-09-30T12:55:50;100416.91;;;17.08;47.09
54194;BME280;40102;50.906;6.972;2022-09-30T12:58:22;100407.59;;;16.70;48.14
54194;BME280;40102;50.906;6.972;2022-09-30T13:01:04;100404.50;;;16.75;48.05
54194;BME280;40102;50.906;6.972;2022-09-30T13:03:44;100402.59;;;16.87;45.35
54194;BME280;40102;50.906;6.972;2022-09-30T13:06:09;100401.25;;;16.81;45.32
54194;BME280;40102;50.906;6.972;2022-09-30T13:09:16;100390.56;;;17.00;45.17
54194;BME280;40102;50.906;6.972;2022-09-30T13:11:36;100382.91;;;17.05;45.43
54194;BME280;40102;50.906;6.972;2022-09-30T13:19:40;100399.03;;;17.97;44.44
54194;BME280;40102;50.906;6.972;2022-09-30T13:35:36;100383.72;;;16.55;44.64
54194;BME280;40102;50.906;6.972;2022-09-30T13:45:44;100387.44;;;16.74;45.52
54194;BME280;40102;50.906;6.972;2022-09-30T13:48:22;100372.44;;;17.12;45.60
54194;BME280;40102;50.906;6.972;2022-09-30T13:50:52;100366.97;;;17.33;43.72
54194;BME280;40102;50.906;6.972;2022-09-30T13:53:24;100386.22;;;17.49;43.51
54194;BME280;40102;50.906;6.972;2022-09-30T13:55:52;100378.03;;;17.30;42.43
54194;BME280;40102;50.906;6.972;2022-09-30T14:01:26;100383.69;;;17.17;43.90
54194;BME280;40102;50.906;6.972;2022-09-30T14:09:43;100362.16;;;16.75;42.60
54194;BME280;40102;50.906;6.972;2022-09-30T14:12:36;100357.19;;;17.11;44.16
54194;BME280;40102;50.906;6.972;2022-09-30T14:18:05;100350.03;;;18.29;43.44
54194;BME280;40102;50.906;6.972;2022-09-30T14:20:48;100355.72;;;18.55;40.79
54194;BME280;40102;50.906;6.972;2022-09-30T14:23:21;100348.25;;;18.86;39.34
54194;BME280;40102;50.906;6.972;2022-09-30T14:28:53;100328.47;;;19.40;37.47
54194;BME280;40102;50.906;6.972;2022-09-30T14:31:23;100345.31;;;19.06;38.13
54194;BME280;40102;50.906;6.972;2022-09-30T14:33:49;100339.13;;;18.87;38.51
54194;BME280;40102;50.906;6.972;2022-09-30T14:36:19;100348.78;;;18.99;38.83
54194;BME280;40102;50.906;6.972;2022-09-30T14:38:48;100336.25;;;18.88;38.46
54194;BME280;40102;50.906;6.972;2022-09-30T14:41:18;100339.47;;;18.64;37.79
54194;BME280;40102;50.906;6.972;2022-09-30T14:43:49;100336.63;;;18.47;39.78
54194;BME280;40102;50.906;6.972;2022-09-30T14:46:23;100339.09;;;18.96;40.73
54194;BME280;40102;50.906;6.972;2022-09-30T14:48:50;100324.56;;;19.52;39.11
54194;BME280;40102;50.906;6.972;2022-09-30T14:51:18;100326.53;;;19.78;37.62
54194;BME280;40102;50.906;6.972;2022-09-30T14:53:58;100344.69;;;19.95;37.91
54194;BME280;40102;50.906;6.972;2022-09-30T14:56:34;100328.88;;;20.08;36.24
54194;BME280;40102;50.906;6.972;2022-09-30T14:59:14;100322.50;;;20.53;37.64
54194;BME280;40102;50.906;6.972;2022-09-30T15:01:40;100312.97;;;21.17;34.45
54194;BME280;40102;50.906;6.972;2022-09-30T15:04:27;100318.28;;;21.69;33.79
54194;BME280;40102;50.906;6.972;2022-09-30T15:06:54;100315.75;;;21.83;33.03
54194;BME280;40102;50.906;6.972;2022-09-30T15:09:37;100313.31;;;21.56;33.45
54194;BME280;40102;50.906;6.972;2022-09-30T15:12:04;100316.09;;;20.96;34.17
54194;BME280;40102;50.906;6.972;2022-09-30T15:14:30;100326.38;;;20.76;35.40
54194;BME280;40102;50.906;6.972;2022-09-30T15:16:57;100321.56;;;20.26;34.48
54194;BME280;40102;50.906;6.972;2022-09-30T15:19:25;100312.75;;;19.44;35.59
54194;BME280;40102;50.906;6.972;2022-09-30T15:21:56;100318.16;;;18.89;36.97
54194;BME280;40102;50.906;6.972;2022-09-30T15:24:27;100310.88;;;18.89;37.53
54194;BME280;40102;50.906;6.972;2022-09-30T15:26:56;100313.75;;;18.78;37.83
54194;BME280;40102;50.906;6.972;2022-09-30T15:29:22;100305.34;;;18.81;37.62
54194;BME280;40102;50.906;6.972;2022-09-30T15:31:55;100303.56;;;18.62;37.47
54194;BME280;40102;50.906;6.972;2022-09-30T15:34:24;100315.41;;;18.32;37.69
54194;BME280;40102;50.906;6.972;2022-09-30T15:37:03;100306.31;;;18.04;39.15
54194;BME280;40102;50.906;6.972;2022-09-30T15:39:35;100304.91;;;17.91;38.90
54194;BME280;40102;50.906;6.972;2022-09-30T15:42:37;100303.03;;;17.82;38.15
54194;BME280;40102;50.906;6.972;2022-09-30T15:45:27;100314.66;;;17.63;39.60
54194;BME280;40102;50.906;6.972;2022-09-30T15:48:00;100314.44;;;18.04;38.68